createdAt,value
2022-11-25T00:01:18.333Z,63.24
2022-11-25T00:03:47.185Z,63.31
2022-11-25T00:06:19.008Z,62.74
2022-11-25T00:08:48.255Z,62.82
2022-11-25T00:11:18.507Z,63.15
2022-11-25T00:13:48.073Z,63.11
2022-11-25T00:16:18.493Z,63.15
2022-11-25T00:18:46.885Z,62.96
2022-11-25T00:21:17.213Z,62.48
2022-11-25T00:23:45.768Z,62.68
2022-11-25T00:26:15.901Z,62.49
2022-11-25T00:28:47.024Z,62.47
2022-11-25T00:31:16.943Z,62.61
2022-11-25T00:33:46.788Z,62.50
2022-11-25T00:36:18.011Z,62.13
2022-11-25T00:38:46.420Z,62.74
2022-11-25T00:41:31.971Z,62.70
2022-11-25T00:44:18.956Z,62.37
2022-11-25T00:46:47.069Z,62.90
2022-11-25T00:49:15.105Z,62.35
2022-11-25T00:51:43.136Z,62.84
2022-11-25T00:54:11.128Z,62.30
2022-11-25T00:56:39.304Z,61.89
2022-11-25T00:59:09.312Z,62.30
2022-11-25T01:01:40.259Z,62.01
2022-11-25T01:04:08.900Z,61.84
2022-11-25T01:06:38.684Z,61.70
2022-11-25T01:09:07.582Z,62.07
2022-11-25T01:11:35.760Z,62.06
2022-11-25T01:14:03.769Z,61.69
2022-11-25T01:16:33.447Z,61.15
2022-11-25T01:19:02.229Z,61.99
2022-11-25T01:21:32.240Z,62.34
2022-11-25T01:24:01.662Z,62.81
2022-11-25T01:26:30.674Z,62.07
2022-11-25T01:29:01.539Z,62.02
2022-11-25T01:31:31.568Z,62.47
2022-11-25T01:34:03.541Z,62.27
2022-11-25T01:36:32.129Z,61.57
2022-11-25T01:39:01.737Z,61.10
2022-11-25T01:41:31.940Z,60.97
2022-11-25T01:44:12.391Z,60.73
2022-11-25T01:46:56.608Z,61.05
2022-11-25T01:49:31.429Z,60.79
2022-11-25T01:52:03.977Z,60.99
2022-11-25T01:54:37.394Z,60.51
2022-11-25T01:57:09.801Z,60.82
2022-11-25T01:59:44.955Z,60.82
2022-11-25T02:02:13.620Z,60.64
2022-11-25T02:04:44.780Z,60.38
2022-11-25T02:07:18.933Z,60.90
2022-11-25T02:09:47.586Z,60.73
2022-11-25T02:12:16.612Z,60.52
2022-11-25T02:14:45.590Z,60.78
2022-11-25T02:17:13.685Z,60.83
2022-11-25T02:19:57.026Z,60.48
2022-11-25T02:22:32.079Z,60.65
2022-11-25T02:25:08.143Z,60.67
2022-11-25T02:27:36.211Z,60.83
2022-11-25T02:30:04.982Z,60.86
2022-11-25T02:32:33.112Z,60.83
2022-11-25T02:35:01.790Z,60.76
2022-11-25T02:37:30.004Z,60.87
2022-11-25T02:39:58.100Z,60.98
2022-11-25T02:42:31.013Z,60.70
2022-11-25T02:44:59.264Z,60.79
2022-11-25T02:47:27.296Z,60.90
2022-11-25T02:49:55.421Z,60.87
2022-11-25T02:52:23.477Z,60.91
2022-11-25T02:54:51.731Z,61.25
2022-11-25T02:57:19.807Z,61.12
2022-11-25T02:59:49.665Z,61.13
2022-11-25T03:02:17.826Z,61.21
2022-11-25T03:04:45.960Z,61.12
2022-11-25T03:07:14.056Z,61.00
2022-11-25T03:09:43.569Z,60.82
2022-11-25T03:12:22.657Z,60.79
2022-11-25T03:14:55.793Z,60.73
2022-11-25T03:17:24.080Z,60.84
2022-11-25T03:19:52.209Z,61.76
2022-11-25T03:22:20.201Z,61.81
2022-11-25T03:24:48.236Z,62.01
2022-11-25T03:27:16.520Z,61.51
2022-11-25T03:29:45.317Z,61.49
2022-11-25T03:32:15.284Z,61.76
2022-11-25T03:34:43.661Z,62.08
2022-11-25T03:37:12.034Z,62.92
2022-11-25T03:39:40.164Z,63.19
2022-11-25T03:42:08.803Z,63.22
2022-11-25T03:44:37.146Z,63.74
2022-11-25T03:47:05.899Z,63.66
2022-11-25T03:49:35.437Z,63.60
2022-11-25T03:52:03.493Z,63.81
2022-11-25T03:54:32.140Z,64.14
2022-11-25T03:57:18.987Z,64.71
2022-11-25T03:59:47.009Z,63.88
2022-11-25T04:02:15.872Z,63.99
2022-11-25T04:04:45.391Z,63.88
2022-11-25T04:07:13.581Z,64.56
2022-11-25T04:09:42.032Z,64.11
2022-11-25T04:12:28.268Z,64.08
2022-11-25T04:15:03.252Z,63.62
2022-11-25T04:17:31.772Z,63.50
2022-11-25T04:20:01.197Z,63.60
2022-11-25T04:22:30.530Z,63.58
2022-11-25T04:24:59.171Z,63.84
2022-11-25T04:27:28.154Z,64.09
2022-11-25T04:29:56.204Z,64.02
2022-11-25T04:32:24.279Z,64.27
2022-11-25T04:34:52.343Z,64.34
2022-11-25T04:37:22.197Z,64.28
2022-11-25T04:39:50.551Z,64.39
2022-11-25T04:42:34.630Z,64.56
2022-11-25T04:45:22.436Z,64.70
2022-11-25T04:47:52.175Z,64.75
2022-11-25T04:50:22.720Z,64.58
2022-11-25T04:53:10.428Z,64.76
2022-11-25T04:55:40.335Z,64.80
2022-11-25T04:58:13.974Z,64.87
2022-11-25T05:00:42.197Z,64.79
2022-11-25T05:03:12.799Z,65.32
2022-11-25T05:05:40.855Z,65.44
2022-11-25T05:08:10.375Z,64.96
2022-11-25T05:10:39.504Z,65.00
2022-11-25T05:13:07.506Z,64.82
2022-11-25T05:15:35.573Z,64.79
2022-11-25T05:18:07.806Z,64.98
2022-11-25T05:20:47.100Z,64.88
2022-11-25T05:23:19.861Z,64.93
2022-11-25T05:25:48.009Z,65.08
2022-11-25T05:28:33.057Z,64.99
2022-11-25T05:31:01.403Z,65.00
2022-11-25T05:33:29.977Z,64.92
2022-11-25T05:36:01.976Z,64.75
2022-11-25T05:38:43.149Z,64.76
2022-11-25T05:41:13.796Z,64.95
2022-11-25T05:43:44.264Z,64.87
2022-11-25T05:46:12.732Z,64.91
2022-11-25T05:48:47.397Z,65.21
2022-11-25T05:51:15.703Z,65.06
2022-11-25T05:53:45.068Z,64.80
2022-11-25T05:56:13.179Z,64.72
2022-11-25T05:59:00.368Z,64.69
2022-11-25T06:01:41.108Z,64.75
2022-11-25T06:04:09.369Z,64.81
2022-11-25T06:06:37.511Z,64.79
2022-11-25T06:09:06.911Z,64.68
2022-11-25T06:11:35.015Z,64.69
2022-11-25T06:14:03.025Z,64.66
2022-11-25T06:16:31.152Z,65.11
2022-11-25T06:19:09.343Z,65.04
2022-11-25T06:21:38.641Z,64.89
2022-11-25T06:24:08.765Z,64.86
2022-11-25T06:26:37.128Z,64.86
2022-11-25T06:29:05.221Z,64.69
2022-11-25T06:31:33.357Z,64.74
2022-11-25T06:34:30.696Z,64.78
2022-11-25T06:36:58.924Z,64.66
2022-11-25T06:39:28.521Z,64.50
2022-11-25T06:41:56.525Z,64.52
2022-11-25T06:44:24.531Z,64.74
2022-11-25T06:46:52.569Z,64.81
2022-11-25T06:49:20.575Z,65.27
2022-11-25T06:51:50.441Z,65.13
2022-11-25T06:54:18.633Z,65.24
2022-11-25T06:56:51.671Z,65.14
2022-11-25T06:59:19.764Z,65.06
2022-11-25T07:01:47.896Z,65.06
2022-11-25T07:04:16.060Z,64.79
2022-11-25T07:06:44.144Z,65.12
2022-11-25T07:09:12.157Z,65.04
2022-11-25T07:11:41.968Z,64.85
2022-11-25T07:14:13.672Z,64.75
2022-11-25T07:16:44.019Z,64.91
2022-11-25T07:19:13.472Z,64.80
2022-11-25T07:21:41.711Z,64.79
2022-11-25T07:24:11.653Z,64.69
2022-11-25T07:26:41.477Z,64.61
2022-11-25T07:32:04.439Z,64.46
2022-11-25T07:34:35.260Z,64.40
2022-11-25T07:37:03.334Z,64.65
2022-11-25T07:39:31.396Z,64.78
2022-11-25T07:41:59.369Z,64.63
2022-11-25T07:44:28.757Z,64.59
2022-11-25T07:47:18.712Z,64.85
2022-11-25T07:49:46.731Z,64.66
2022-11-25T07:52:14.721Z,64.60
2022-11-25T07:54:42.725Z,64.98
2022-11-25T07:57:10.777Z,64.76
2022-11-25T07:59:41.618Z,64.58
2022-11-25T08:02:10.906Z,64.70
2022-11-25T08:04:39.163Z,64.70
2022-11-25T08:07:07.149Z,64.58
2022-11-25T08:09:35.593Z,64.47
2022-11-25T08:12:03.848Z,64.53
2022-11-25T08:14:32.063Z,64.59
2022-11-25T08:17:01.453Z,64.79
2022-11-25T08:19:33.684Z,64.49
2022-11-25T08:22:01.717Z,64.46
2022-11-25T08:24:29.699Z,64.53
2022-11-25T08:26:58.785Z,64.24
2022-11-25T08:29:26.761Z,64.19
2022-11-25T08:31:54.742Z,64.20
2022-11-25T08:34:25.917Z,64.18
2022-11-25T08:37:00.717Z,64.29
2022-11-25T08:39:50.997Z,64.38
2022-11-25T08:42:17.872Z,64.22
2022-11-25T08:44:45.909Z,64.12
2022-11-25T08:47:13.901Z,64.49
2022-11-25T08:49:43.708Z,64.35
2022-11-25T08:52:12.408Z,64.24
2022-11-25T08:54:40.423Z,64.22
2022-11-25T08:57:08.657Z,64.23
2022-11-25T08:59:37.227Z,64.02
2022-11-25T09:02:06.224Z,64.30
2022-11-25T09:04:34.592Z,64.30
2022-11-25T09:07:05.862Z,64.17
2022-11-25T09:09:34.095Z,64.47
2022-11-25T09:12:02.422Z,64.38
2022-11-25T09:14:30.473Z,64.50
2022-11-25T09:16:58.505Z,64.24
2022-11-25T09:19:26.526Z,64.97
2022-11-25T09:21:54.587Z,64.70
2022-11-25T09:24:24.040Z,64.52
2022-11-25T09:26:52.162Z,64.26
2022-11-25T09:29:20.255Z,64.07
2022-11-25T09:31:54.462Z,64.16
2022-11-25T09:34:23.213Z,64.50
2022-11-25T09:36:51.560Z,64.50
2022-11-25T09:39:19.610Z,64.45
2022-11-25T09:42:19.056Z,63.41
2022-11-25T09:45:21.776Z,62.73
2022-11-25T09:47:58.817Z,62.92
2022-11-25T09:50:40.643Z,62.79
2022-11-25T09:53:19.496Z,61.95
2022-11-25T09:55:50.305Z,62.39
2022-11-25T09:58:27.030Z,62.48
2022-11-25T10:00:55.210Z,62.27
2022-11-25T10:03:34.330Z,62.21
2022-11-25T10:06:06.622Z,62.31
2022-11-25T10:08:39.300Z,63.03
2022-11-25T10:11:18.401Z,61.76
2022-11-25T10:13:53.736Z,61.05
2022-11-25T10:16:32.447Z,61.18
2022-11-25T10:19:02.538Z,60.57
2022-11-25T10:21:30.722Z,59.37
2022-11-25T10:23:58.776Z,60.22
2022-11-25T10:26:35.833Z,58.52
2022-11-25T10:29:23.035Z,57.74
2022-11-25T10:31:56.301Z,55.39
2022-11-25T10:34:31.020Z,54.08
2022-11-25T10:37:01.544Z,54.04
2022-11-25T10:39:35.027Z,52.77
2022-11-25T10:42:08.107Z,52.78
2022-11-25T10:44:39.478Z,53.52
2022-11-25T10:47:23.842Z,53.31
2022-11-25T10:50:01.945Z,52.58
2022-11-25T10:52:31.752Z,52.36
2022-11-25T10:55:11.023Z,51.95
2022-11-25T10:57:39.433Z,52.82
2022-11-25T11:00:26.639Z,53.56
2022-11-25T11:02:55.665Z,54.62
2022-11-25T11:05:25.797Z,54.91
2022-11-25T11:08:11.460Z,54.07
2022-11-25T11:10:40.241Z,52.78
2022-11-25T11:13:22.195Z,51.02
2022-11-25T11:15:53.118Z,50.68
2022-11-25T11:18:29.664Z,50.82
2022-11-25T11:20:59.773Z,50.20
2022-11-25T11:23:28.953Z,51.08
2022-11-25T11:26:00.756Z,49.89
2022-11-25T11:28:38.602Z,49.14
2022-11-25T11:31:19.731Z,48.38
2022-11-25T11:33:59.104Z,48.24
2022-11-25T11:36:40.480Z,47.09
2022-11-25T11:39:37.819Z,46.17
2022-11-25T11:42:11.580Z,46.96
2022-11-25T11:44:58.940Z,46.32
2022-11-25T11:47:34.661Z,45.83
2022-11-25T11:50:24.380Z,46.83
2022-11-25T11:53:01.929Z,48.17
2022-11-25T11:55:45.241Z,47.59
2022-11-25T11:58:26.176Z,47.30
2022-11-25T12:01:03.780Z,47.55
2022-11-25T12:03:39.418Z,48.08
2022-11-25T12:06:10.782Z,49.70
2022-11-25T12:08:47.852Z,50.27
2022-11-25T12:11:20.533Z,49.95
2022-11-25T12:13:54.323Z,50.14
2022-11-25T12:16:29.002Z,49.17
2022-11-25T12:19:04.265Z,47.83
2022-11-25T12:21:42.993Z,47.79
2022-11-25T12:24:19.777Z,46.72
2022-11-25T12:26:52.585Z,46.99
2022-11-25T12:29:29.458Z,46.31
2022-11-25T12:32:10.453Z,45.16
2022-11-25T12:34:44.686Z,43.93
2022-11-25T12:37:19.133Z,44.13
2022-11-25T12:39:53.516Z,43.56
2022-11-25T12:42:25.818Z,44.11
2022-11-25T12:45:00.753Z,43.98
2022-11-25T12:47:28.842Z,43.96
2022-11-25T12:49:58.859Z,43.51
2022-11-25T12:52:41.644Z,42.95
2022-11-25T12:55:16.525Z,42.71
2022-11-25T12:58:21.031Z,42.25
2022-11-25T13:01:25.895Z,42.94
2022-11-25T13:04:17.737Z,44.08
2022-11-25T13:07:13.699Z,45.93
2022-11-25T13:10:14.347Z,47.12
2022-11-25T13:12:52.153Z,49.02
2022-11-25T13:15:27.239Z,50.23
2022-11-25T13:18:00.201Z,51.19
2022-11-25T13:20:50.953Z,51.53
2022-11-25T13:23:29.487Z,52.24
2022-11-25T13:26:37.735Z,53.16
2022-11-25T13:29:42.189Z,51.34
2022-11-25T13:32:26.439Z,50.30
2022-11-25T13:35:31.980Z,48.67
2022-11-25T13:38:00.217Z,48.24
2022-11-25T13:40:40.441Z,47.51
2022-11-25T13:43:22.857Z,46.87
2022-11-25T13:45:51.326Z,46.10
2022-11-25T13:48:22.372Z,45.25
2022-11-25T13:51:10.717Z,45.02
2022-11-25T13:53:40.137Z,44.94
2022-11-25T13:56:26.552Z,45.09
2022-11-25T13:59:21.698Z,45.88
2022-11-25T14:01:56.207Z,47.08
2022-11-25T14:04:42.775Z,47.19
2022-11-25T14:07:26.191Z,47.34
2022-11-25T14:10:08.702Z,46.90
2022-11-25T14:13:01.711Z,47.12
2022-11-25T14:15:45.650Z,47.67
2022-11-25T14:19:11.931Z,47.70
2022-11-25T14:21:51.388Z,47.73
2022-11-25T14:24:27.974Z,47.95
2022-11-25T14:26:58.153Z,48.86
2022-11-25T14:29:34.797Z,49.34
2022-11-25T14:32:07.107Z,50.56
2022-11-25T14:34:40.098Z,51.45
2022-11-25T14:37:14.452Z,52.27
2022-11-25T14:39:48.484Z,52.52
2022-11-25T14:42:19.664Z,52.98
2022-11-25T14:44:50.787Z,53.39
2022-11-25T14:47:24.109Z,53.46
2022-11-25T14:52:44.177Z,53.99
2022-11-25T14:55:12.994Z,54.26
2022-11-25T14:57:44.844Z,54.52
2022-11-25T15:00:16.977Z,54.93
2022-11-25T15:02:55.442Z,55.23
2022-11-25T15:05:27.013Z,55.25
2022-11-25T15:07:59.934Z,55.19
2022-11-25T15:10:42.045Z,55.20
2022-11-25T15:13:24.420Z,55.60
2022-11-25T15:15:55.892Z,55.82
2022-11-25T15:18:26.030Z,55.97
2022-11-25T15:20:58.476Z,56.26
2022-11-25T15:23:31.869Z,56.14
2022-11-25T15:26:01.146Z,56.41
2022-11-25T15:28:35.409Z,56.28
2022-11-25T15:31:10.440Z,56.45
2022-11-25T15:33:39.446Z,57.18
2022-11-25T15:36:08.056Z,57.40
2022-11-25T15:38:41.076Z,57.43
2022-11-25T15:41:21.596Z,57.18
2022-11-25T15:43:51.857Z,57.71
2022-11-25T15:46:22.144Z,57.34
2022-11-25T15:48:52.450Z,57.39
2022-11-25T15:51:33.949Z,57.34
2022-11-25T15:54:06.621Z,57.45
2022-11-25T15:56:38.701Z,57.57
2022-11-25T15:59:06.777Z,57.79
2022-11-25T16:01:36.315Z,57.69
2022-11-25T16:04:13.425Z,57.35
2022-11-25T16:06:54.475Z,57.24
2022-11-25T16:09:25.374Z,57.75
2022-11-25T16:11:53.609Z,57.82
2022-11-25T16:14:27.485Z,57.84
2022-11-25T16:17:03.009Z,57.57
2022-11-25T16:19:37.809Z,57.92
2022-11-25T16:22:06.906Z,58.03
2022-11-25T16:24:41.660Z,58.13
2022-11-25T16:27:19.124Z,58.31
2022-11-25T16:29:53.167Z,58.35
2022-11-25T16:32:23.999Z,58.71
2022-11-25T16:34:52.270Z,59.10
2022-11-25T16:37:20.302Z,59.08
2022-11-25T16:39:48.381Z,59.22
2022-11-25T16:42:21.510Z,59.16
2022-11-25T16:44:51.228Z,59.76
2022-11-25T16:47:20.482Z,59.57
2022-11-25T16:49:50.188Z,59.73
2022-11-25T16:52:18.237Z,59.83
2022-11-25T16:54:47.460Z,59.92
2022-11-25T16:57:20.100Z,59.99
2022-11-25T16:59:53.253Z,60.31
2022-11-25T17:02:24.241Z,60.21
2022-11-25T17:04:53.732Z,60.57
2022-11-25T17:07:38.379Z,60.92
2022-11-25T17:10:08.188Z,61.24
2022-11-25T17:12:37.068Z,61.41
2022-11-25T17:15:08.343Z,61.28
2022-11-25T17:17:36.732Z,60.89
2022-11-25T17:20:11.411Z,61.03
2022-11-25T17:22:39.789Z,61.09
2022-11-25T17:25:09.090Z,61.14
2022-11-25T17:27:37.160Z,61.34
2022-11-25T17:30:18.797Z,60.98
2022-11-25T17:32:47.430Z,61.00
2022-11-25T17:35:21.703Z,61.09
2022-11-25T17:37:49.891Z,61.34
2022-11-25T17:40:18.267Z,61.25
2022-11-25T17:42:48.368Z,61.22
2022-11-25T17:45:18.518Z,61.02
2022-11-25T17:47:47.116Z,60.96
2022-11-25T17:50:21.604Z,60.71
2022-11-25T17:52:50.308Z,60.92
2022-11-25T17:55:19.880Z,61.29
2022-11-25T17:57:48.315Z,61.28
2022-11-25T18:00:19.702Z,60.99
2022-11-25T18:02:48.152Z,61.00
2022-11-25T18:05:18.333Z,60.99
2022-11-25T18:07:48.189Z,60.89
2022-11-25T18:10:18.781Z,61.15
2022-11-25T18:12:48.847Z,61.23
2022-11-25T18:15:18.681Z,61.53
2022-11-25T18:17:47.150Z,61.43
2022-11-25T18:20:20.752Z,61.31
2022-11-25T18:22:52.186Z,61.27
2022-11-25T18:25:22.982Z,61.32
2022-11-25T18:27:56.127Z,61.48
2022-11-25T18:30:27.357Z,61.65
2022-11-25T18:32:56.248Z,61.71
2022-11-25T18:35:28.758Z,61.88
2022-11-25T18:38:02.223Z,61.61
2022-11-25T18:40:31.250Z,61.80
2022-11-25T18:43:02.468Z,61.74
2022-11-25T18:45:34.900Z,61.67
2022-11-25T18:48:03.113Z,61.84
2022-11-25T18:50:31.115Z,61.76
2022-11-25T18:52:59.154Z,61.61
2022-11-25T18:55:28.776Z,61.57
2022-11-25T18:57:56.811Z,61.68
2022-11-25T19:00:33.339Z,61.78
2022-11-25T19:03:02.215Z,61.96
2022-11-25T19:05:32.365Z,62.07
2022-11-25T19:08:01.272Z,62.49
2022-11-25T19:10:33.278Z,62.31
2022-11-25T19:13:03.980Z,62.50
2022-11-25T19:15:33.103Z,62.51
2022-11-25T19:18:03.244Z,62.47
2022-11-25T19:20:32.285Z,62.47
2022-11-25T19:23:02.404Z,62.57
2022-11-25T19:25:31.920Z,62.62
2022-11-25T19:28:02.276Z,62.83
2022-11-25T19:30:33.368Z,63.02
2022-11-25T19:33:03.014Z,63.18
2022-11-25T19:35:36.608Z,63.04
2022-11-25T19:38:12.102Z,62.90
2022-11-25T19:40:41.492Z,63.08
2022-11-25T19:43:09.536Z,63.27
2022-11-25T19:45:38.293Z,63.23
2022-11-25T19:48:08.920Z,63.54
2022-11-25T19:50:39.926Z,63.25
2022-11-25T19:53:15.302Z,63.03
2022-11-25T19:55:45.148Z,63.31
2022-11-25T19:58:13.405Z,63.37
2022-11-25T20:00:43.058Z,62.95
2022-11-25T20:03:20.279Z,62.45
2022-11-25T20:05:48.938Z,62.40
2022-11-25T20:08:20.010Z,62.40
2022-11-25T20:10:49.680Z,62.28
2022-11-25T20:13:17.721Z,62.23
2022-11-25T20:15:46.616Z,62.53
2022-11-25T20:18:18.346Z,62.53
2022-11-25T20:20:48.579Z,62.39
2022-11-25T20:23:20.924Z,62.54
2022-11-25T20:25:51.194Z,62.54
2022-11-25T20:28:21.466Z,62.39
2022-11-25T20:30:51.317Z,62.66
2022-11-25T20:33:23.999Z,62.70
2022-11-25T20:35:58.054Z,62.58
2022-11-25T20:38:29.720Z,62.52
2022-11-25T20:41:00.242Z,62.58
2022-11-25T20:43:30.033Z,62.80
2022-11-25T20:45:59.000Z,62.77
2022-11-25T20:48:28.164Z,62.67
2022-11-25T20:50:56.641Z,62.92
2022-11-25T20:53:24.668Z,62.91
2022-11-25T20:55:52.698Z,62.89
2022-11-25T20:58:25.257Z,62.72
2022-11-25T21:00:57.457Z,63.02
2022-11-25T21:03:26.319Z,62.91
2022-11-25T21:05:55.158Z,63.27
2022-11-25T21:08:24.960Z,63.08
2022-11-25T21:10:55.535Z,63.19
2022-11-25T21:13:27.037Z,63.44
2022-11-25T21:15:56.895Z,63.43
2022-11-25T21:18:25.454Z,63.50
2022-11-25T21:20:56.607Z,63.50
2022-11-25T21:23:27.829Z,63.75
2022-11-25T21:25:58.160Z,63.56
2022-11-25T21:28:28.586Z,63.45
2022-11-25T21:30:56.601Z,63.56
2022-11-25T21:33:24.610Z,63.80
2022-11-25T21:35:52.800Z,63.64
2022-11-25T21:38:23.592Z,64.02
2022-11-25T21:40:54.058Z,63.97
2022-11-25T21:43:25.152Z,63.91
2022-11-25T21:46:00.879Z,63.44
2022-11-25T21:48:29.840Z,63.90
2022-11-25T21:50:58.713Z,63.98
2022-11-25T21:53:27.073Z,63.93
2022-11-25T21:55:55.348Z,64.10
2022-11-25T21:58:27.444Z,64.17
2022-11-25T22:00:58.739Z,64.24
2022-11-25T22:03:29.664Z,64.35
2022-11-25T22:05:57.889Z,64.59
2022-11-25T22:08:25.997Z,64.63
2022-11-25T22:10:55.770Z,64.58
2022-11-25T22:13:28.738Z,64.48
2022-11-25T22:15:59.603Z,64.40
2022-11-25T22:18:30.295Z,64.37
2022-11-25T22:20:58.612Z,64.24
2022-11-25T22:23:27.300Z,64.09
2022-11-25T22:25:56.014Z,64.26
2022-11-25T22:28:26.591Z,64.14
2022-11-25T22:30:56.789Z,64.30
2022-11-25T22:33:31.740Z,64.24
2022-11-25T22:36:00.090Z,64.38
2022-11-25T22:38:29.748Z,64.27
2022-11-25T22:41:01.504Z,63.94
2022-11-25T22:43:32.828Z,64.30
2022-11-25T22:46:01.260Z,64.35
2022-11-25T22:48:34.569Z,63.92
2022-11-25T22:51:02.950Z,64.02
2022-11-25T22:53:30.977Z,63.96
2022-11-25T22:55:59.095Z,64.09
2022-11-25T22:58:28.414Z,64.26
2022-11-25T23:00:57.638Z,64.31
2022-11-25T23:03:29.240Z,64.25
2022-11-25T23:05:59.072Z,64.25
2022-11-25T23:08:29.689Z,64.10
2022-11-25T23:10:57.907Z,64.09
2022-11-25T23:13:26.168Z,64.18
2022-11-25T23:15:56.706Z,64.01
2022-11-25T23:18:28.543Z,64.36
2022-11-25T23:20:58.300Z,64.69
2022-11-25T23:23:28.128Z,64.42
2022-11-25T23:25:57.201Z,64.57
2022-11-25T23:28:25.696Z,64.49
2022-11-25T23:30:55.661Z,64.24
2022-11-25T23:33:31.286Z,64.36
2022-11-25T23:36:06.156Z,64.69
2022-11-25T23:38:42.521Z,64.69
2022-11-25T23:41:15.275Z,64.50
2022-11-25T23:43:43.382Z,64.82
2022-11-25T23:46:15.012Z,64.63
2022-11-25T23:48:44.427Z,64.59
2022-11-25T23:51:13.870Z,64.66
2022-11-25T23:53:42.492Z,64.76
2022-11-25T23:56:10.488Z,64.56
2022-11-25T23:58:38.514Z,64.57
